Time;durP1;ratioP1;P1;durP2;ratioP2;P2;SDS_P1;SDS_P2;PMS_P1;PMS_P2;Temp;Humidity;BMP_temperature;BMP_pressure;BME280_temperature;BME280_humidity;BME280_pressure;Samples;Min_cycle;Max_cycle;Signal;HPM_P1;HPM_P2
2023/07/02 00:01:50;;;;;;;2.30;2.20;;;21.90;55.50;;;;;;20352;6791;284706;-77
2023/07/02 00:04:26;;;;;;;2.30;2.20;;;22.00;55.60;;;;;;20670;6797;117297;-76
2023/07/02 00:07:04;;;;;;;1.90;1.80;;;21.80;55.60;;;;;;20687;6801;122805;-78
2023/07/02 00:09:38;;;;;;;2.17;2.07;;;21.40;55.90;;;;;;20723;6792;118208;-77
2023/07/02 00:12:13;;;;;;;2.55;2.35;;;21.20;56.30;;;;;;20336;6792;309980;-77
2023/07/02 00:14:52;;;;;;;2.40;2.30;;;21.40;56.40;;;;;;20480;6798;279056;-78
2023/07/02 00:17:25;;;;;;;2.23;2.13;;;21.70;55.20;;;;;;20711;6799;117725;-76
2023/07/02 00:20:08;;;;;;;2.60;2.50;;;21.60;55.10;;;;;;20475;6799;278979;-78
2023/07/02 00:22:38;;;;;;;2.50;2.30;;;21.80;55.50;;;;;;20487;6792;307324;-77
2023/07/02 00:25:13;;;;;;;2.37;2.10;;;22.00;54.90;;;;;;20710;6792;117717;-77
2023/07/02 00:27:49;;;;;;;2.80;2.40;;;21.80;55.00;;;;;;20487;6792;295942;-76
2023/07/02 00:30:24;;;;;;;2.27;2.13;;;21.80;54.50;;;;;;20644;6792;121425;-76
2023/07/02 00:33:01;;;;;;;2.43;2.33;;;21.60;54.70;;;;;;20706;6792;118481;-77
2023/07/02 00:35:36;;;;;;;2.60;2.50;;;21.30;55.20;;;;;;20501;6792;278517;-77
2023/07/02 00:38:13;;;;;;;2.65;2.45;;;21.70;54.80;;;;;;20497;6792;278215;-76
2023/07/02 00:40:48;;;;;;;2.50;2.40;;;21.60;54.70;;;;;;20618;6792;117792;-78
2023/07/02 00:43:24;;;;;;;2.70;2.60;;;21.60;54.70;;;;;;20679;6799;119323;-78
2023/07/02 00:46:03;;;;;;;3.70;2.77;;;21.30;54.90;;;;;;20687;6797;117870;-77
2023/07/02 00:48:35;;;;;;;2.63;2.47;;;21.00;55.10;;;;;;20435;6797;308283;-79
2023/07/02 00:51:11;;;;;;;2.97;2.78;;;21.20;54.70;;;;;;20367;6804;340668;-77
2023/07/02 00:53:46;;;;;;;2.53;2.40;;;21.60;53.90;;;;;;20687;6797;117303;-77
2023/07/02 00:56:27;;;;;;;2.90;2.60;;;21.50;53.80;;;;;;20460;6797;310449;-77
2023/07/02 00:58:58;;;;;;;2.60;2.50;;;21.60;53.30;;;;;;20697;6797;117389;-78
2023/07/02 01:01:37;;;;;;;2.80;2.60;;;21.40;53.40;;;;;;20344;6797;310262;-78
2023/07/02 01:04:12;;;;;;;2.93;2.73;;;21.60;53.40;;;;;;20477;6797;321084;-77
2023/07/02 01:06:45;;;;;;;2.97;2.70;;;21.80;52.80;;;;;;20643;6804;117806;-80
2023/07/02 01:09:30;;;;;;;2.83;2.67;;;21.70;52.90;;;;;;20658;6808;118146;-78
2023/07/02 01:11:56;;;;;;;3.10;2.60;;;21.40;53.30;;;;;;20514;6804;117547;-79
2023/07/02 01:14:33;;;;;;;2.90;2.70;;;21.30;53.30;;;;;;20454;6798;312538;-78
2023/07/02 01:17:08;;;;;;;2.70;2.60;;;21.20;53.30;;;;;;20665;6804;117369;-76
2023/07/02 01:19:51;;;;;;;2.43;2.30;;;21.20;53.20;;;;;;20699;6793;117422;-77
2023/07/02 01:22:26;;;;;;;2.80;2.70;;;21.00;53.50;;;;;;20401;6816;280022;-77
2023/07/02 01:25:02;;;;;;;2.80;2.63;;;21.30;53.40;;;;;;20691;6797;123349;-77
2023/07/02 01:27:37;;;;;;;2.43;2.33;;;21.20;53.30;;;;;;20672;6801;121636;-77
2023/07/02 01:30:15;;;;;;;4.33;2.50;;;21.00;53.50;;;;;;20670;6797;117690;-77
2023/07/02 01:32:53;;;;;;;2.75;2.55;;;20.80;53.70;;;;;;20466;6797;316376;-77
2023/07/02 01:35:26;;;;;;;3.83;2.60;;;21.10;53.30;;;;;;20695;6797;118993;-76
2023/07/02 01:38:02;;;;;;;2.77;2.30;;;21.00;53.30;;;;;;20692;6797;117318;-77
2023/07/02 01:40:37;;;;;;;2.73;2.60;;;20.80;53.40;;;;;;20605;6797;118327;-77
2023/07/02 01:43:16;;;;;;;2.97;2.77;;;20.70;53.70;;;;;;20479;6797;278532;-78
2023/07/02 01:45:48;;;;;;;2.92;2.83;;;20.90;53.60;;;;;;20484;6797;282673;-77
2023/07/02 01:48:25;;;;;;;2.30;2.20;;;21.20;52.70;;;;;;20673;6797;117877;-77
2023/07/02 01:51:02;;;;;;;2.90;2.70;;;21.10;52.60;;;;;;20395;6797;310036;-78
2023/07/02 01:53:38;;;;;;;3.05;2.80;;;21.20;52.50;;;;;;20485;6797;281168;-77
2023/07/02 01:56:13;;;;;;;2.60;2.40;;;21.40;52.00;;;;;;20688;6797;119425;-77
2023/07/02 01:58:49;;;;;;;2.40;2.30;;;21.20;52.30;;;;;;20658;6797;117289;-76
2023/07/02 02:01:24;;;;;;;2.27;2.17;;;20.90;52.90;;;;;;20578;6797;123573;-76
2023/07/02 02:04:06;;;;;;;3.27;2.73;;;20.80;54.10;;;;;;20514;6786;308987;-77
2023/07/02 02:06:41;;;;;;;2.97;2.77;;;21.20;53.60;;;;;;20443;6801;281810;-76
2023/07/02 02:09:16;;;;;;;3.20;3.00;;;21.20;53.40;;;;;;20482;6797;278890;-79
2023/07/02 02:11:52;;;;;;;3.20;3.00;;;21.40;52.90;;;;;;20337;6797;309121;-80
2023/07/02 02:14:27;;;;;;;2.73;2.17;;;21.60;52.60;;;;;;20674;6797;123098;-78
2023/07/02 02:17:04;;;;;;;2.60;2.50;;;21.40;52.70;;;;;;20476;6797;308559;-78
2023/07/02 02:19:39;;;;;;;2.77;2.57;;;21.40;52.70;;;;;;20693;6797;117720;-77
2023/07/02 02:22:15;;;;;;;2.90;2.80;;;21.20;52.80;;;;;;20511;6856;119200;-77
2023/07/02 02:24:51;;;;;;;2.83;2.62;;;21.10;53.70;;;;;;20476;6794;308979;-77
2023/07/02 02:27:27;;;;;;;4.57;2.70;;;21.00;52.90;;;;;;20484;6794;310642;-79
2023/07/02 02:30:02;;;;;;;2.67;2.50;;;21.40;52.60;;;;;;20690;6794;117405;-78
2023/07/02 02:32:39;;;;;;;5.30;2.93;;;21.00;52.80;;;;;;20611;6817;117901;-77
2023/07/02 02:35:14;;;;;;;2.50;2.30;;;21.00;52.80;;;;;;20662;6805;117327;-77
2023/07/02 02:37:50;;;;;;;3.12;2.90;;;20.80;53.20;;;;;;20448;6809;304198;-78
2023/07/02 02:40:25;;;;;;;3.10;2.80;;;20.90;53.10;;;;;;20642;6790;121055;-78
2023/07/02 02:43:01;;;;;;;2.92;2.72;;;20.90;53.20;;;;;;20478;6799;282000;-77
2023/07/02 02:45:36;;;;;;;2.50;2.40;;;21.10;53.60;;;;;;20659;6807;120888;-77
2023/07/02 02:48:12;;;;;;;2.77;2.60;;;21.10;53.50;;;;;;20638;6816;117927;-77
2023/07/02 02:50:48;;;;;;;2.87;2.70;;;20.80;53.70;;;;;;20445;6779;295483;-77
2023/07/02 02:53:24;;;;;;;3.03;2.83;;;21.00;54.20;;;;;;20490;6795;283552;-77
2023/07/02 02:56:00;;;;;;;3.40;3.10;;;21.40;53.90;;;;;;20486;6794;278959;-76
2023/07/02 02:58:38;;;;;;;3.03;2.93;;;21.70;53.40;;;;;;20726;6780;118472;-77
2023/07/02 03:01:11;;;;;;;3.40;3.20;;;21.50;53.30;;;;;;20618;6780;117848;-77
2023/07/02 03:03:46;;;;;;;3.10;2.90;;;21.20;53.70;;;;;;20694;6794;119231;-77
2023/07/02 03:06:22;;;;;;;3.50;3.30;;;20.90;54.10;;;;;;20508;6780;312247;-77
2023/07/02 03:08:58;;;;;;;3.30;3.10;;;21.10;54.40;;;;;;20727;6784;118689;-77
2023/07/02 03:11:33;;;;;;;3.10;2.90;;;21.00;54.10;;;;;;20573;6794;117605;-78
2023/07/02 03:14:09;;;;;;;3.10;2.90;;;20.70;54.40;;;;;;20746;6780;117312;-77
2023/07/02 03:16:46;;;;;;;3.30;3.10;;;20.50;55.00;;;;;;20714;6784;118795;-77
2023/07/02 03:19:21;;;;;;;3.60;3.40;;;20.40;56.90;;;;;;20509;6790;278720;-77
2023/07/02 03:21:56;;;;;;;3.83;3.40;;;20.40;56.90;;;;;;20518;6794;118267;-77
2023/07/02 03:24:32;;;;;;;3.50;3.30;;;20.30;56.40;;;;;;20454;6795;308384;-76
2023/07/02 03:27:08;;;;;;;3.60;3.30;;;20.60;56.90;;;;;;20526;6780;293923;-76
2023/07/02 03:29:44;;;;;;;3.50;3.30;;;20.60;56.40;;;;;;20734;6784;117222;-76
2023/07/02 03:32:19;;;;;;;3.17;3.00;;;20.40;56.10;;;;;;20548;6840;133428;-77
2023/07/02 03:34:55;;;;;;;5.73;3.17;;;20.00;56.60;;;;;;20697;6794;117414;-76
2023/07/02 03:37:30;;;;;;;3.20;3.00;;;19.60;57.00;;;;;;20699;6794;117752;-76
2023/07/02 03:40:06;;;;;;;4.10;3.80;;;19.30;57.30;;;;;;20512;6779;308457;-76
2023/07/02 03:42:43;;;;;;;4.50;3.70;;;19.70;57.90;;;;;;20418;6813;308789;-77
2023/07/02 03:45:18;;;;;;;4.87;3.17;;;19.70;57.90;;;;;;20689;6797;123277;-76
2023/07/02 03:47:54;;;;;;;3.07;2.87;;;19.50;57.60;;;;;;20717;6789;122076;-77
2023/07/02 03:50:29;;;;;;;3.83;3.43;;;19.10;58.40;;;;;;20649;6789;122526;-76
2023/07/02 03:53:05;;;;;;;4.68;4.00;;;18.90;59.00;;;;;;20538;6779;277912;-76
2023/07/02 03:55:41;;;;;;;3.67;3.43;;;19.00;59.60;;;;;;20752;6779;117521;-76
2023/07/02 03:58:16;;;;;;;3.77;3.33;;;18.80;59.70;;;;;;20750;6779;117231;-76
2023/07/02 04:00:52;;;;;;;4.23;3.93;;;18.60;60.10;;;;;;20451;6779;280129;-76
2023/07/02 04:03:27;;;;;;;4.10;3.80;;;18.70;61.10;;;;;;20556;6779;277556;-76
2023/07/02 04:06:07;;;;;;;4.50;4.10;;;19.40;60.60;;;;;;20544;6779;283010;-76
2023/07/02 04:08:42;;;;;;;3.87;3.67;;;19.40;60.60;;;;;;20514;6779;315358;-76
2023/07/02 04:11:18;;;;;;;3.90;3.60;;;19.60;59.90;;;;;;20402;6780;295967;-78
2023/07/02 04:13:53;;;;;;;3.90;3.60;;;19.70;59.30;;;;;;20529;6780;336584;-77
2023/07/02 04:16:29;;;;;;;3.23;3.03;;;19.90;59.00;;;;;;20730;6780;121499;-76
2023/07/02 04:19:05;;;;;;;3.80;3.60;;;19.60;59.20;;;;;;20535;6780;306791;-77
2023/07/02 04:21:40;;;;;;;3.50;3.30;;;19.50;59.40;;;;;;20584;6780;117556;-77
2023/07/02 04:24:16;;;;;;;3.40;3.20;;;19.40;60.00;;;;;;20734;6780;117348;-77
2023/07/02 04:26:52;;;;;;;3.83;3.53;;;19.00;60.50;;;;;;20518;6779;277221;-77
2023/07/02 04:29:27;;;;;;;4.17;3.87;;;19.20;60.50;;;;;;20518;6780;306576;-77
2023/07/02 04:32:04;;;;;;;3.95;3.67;;;19.60;60.30;;;;;;20328;6780;339217;-76
2023/07/02 04:34:39;;;;;;;3.50;3.10;;;19.60;59.70;;;;;;20719;6780;118311;-76
2023/07/02 04:37:15;;;;;;;3.03;2.83;;;19.40;60.00;;;;;;20736;6780;117128;-77
2023/07/02 04:39:50;;;;;;;3.30;3.10;;;19.10;60.80;;;;;;20740;6780;117251;-77
2023/07/02 04:42:27;;;;;;;3.27;3.07;;;18.90;61.40;;;;;;20744;6780;118246;-76
2023/07/02 04:45:03;;;;;;;4.37;3.78;;;18.60;61.90;;;;;;20449;6809;278830;-76
2023/07/02 04:47:37;;;;;;;3.70;3.40;;;18.90;62.70;;;;;;20686;6802;119276;-77
2023/07/02 04:50:13;;;;;;;3.20;3.00;;;18.90;62.60;;;;;;20682;6794;119127;-76
2023/07/02 04:52:48;;;;;;;3.47;3.17;;;18.80;63.10;;;;;;20702;6794;117803;-78
2023/07/02 04:55:24;;;;;;;3.73;3.30;;;18.70;63.50;;;;;;20665;6809;117276;-75
2023/07/02 04:58:00;;;;;;;4.30;4.00;;;19.00;63.30;;;;;;20434;6809;309130;-75
2023/07/02 05:00:45;;;;;;;4.20;3.90;;;19.00;63.20;;;;;;20347;6805;311630;-75
2023/07/02 05:03:12;;;;;;;4.27;3.87;;;19.40;62.10;;;;;;20536;6779;280548;-75
2023/07/02 05:05:47;;;;;;;3.00;2.80;;;19.80;61.10;;;;;;20721;6779;117694;-75
2023/07/02 05:08:23;;;;;;;3.70;3.40;;;19.70;61.00;;;;;;20714;6779;117725;-76
2023/07/02 05:11:07;;;;;;;4.12;3.83;;;19.50;61.70;;;;;;20431;6779;280773;-76
2023/07/02 05:13:43;;;;;;;4.10;3.80;;;19.60;61.30;;;;;;20461;6801;282461;-76
2023/07/02 05:16:10;;;;;;;3.77;3.47;;;20.00;60.50;;;;;;20686;6801;121062;-75
2023/07/02 05:18:45;;;;;;;4.00;3.80;;;20.00;60.60;;;;;;20435;6801;308227;-76
2023/07/02 05:21:21;;;;;;;3.53;3.33;;;20.10;60.20;;;;;;20569;6801;120789;-76
2023/07/02 05:23:57;;;;;;;4.27;3.97;;;20.20;60.30;;;;;;20433;6812;311099;-76
2023/07/02 05:26:32;;;;;;;3.40;3.20;;;20.20;60.30;;;;;;20429;6812;345057;-75
2023/07/02 05:29:14;;;;;;;2.60;2.50;;;20.50;60.10;;;;;;20653;6812;117237;-76
2023/07/02 05:31:44;;;;;;;2.90;2.70;;;20.40;60.20;;;;;;20552;6812;118907;-77
2023/07/02 05:34:20;;;;;;;3.20;3.00;;;20.30;59.60;;;;;;20465;6797;315896;-79
2023/07/02 05:36:56;;;;;;;3.40;3.12;;;20.30;59.60;;;;;;20478;6797;341849;-78
2023/07/02 05:39:31;;;;;;;3.03;2.83;;;20.60;58.80;;;;;;20697;6797;116570;-79
2023/07/02 05:42:07;;;;;;;3.23;3.03;;;20.70;60.00;;;;;;20327;6797;281340;-76
2023/07/02 05:44:43;;;;;;;2.77;2.57;;;20.70;60.00;;;;;;20680;6789;117419;-76
2023/07/02 05:47:19;;;;;;;3.20;3.00;;;20.80;59.70;;;;;;20470;6805;307592;-76
2023/07/02 05:49:58;;;;;;;3.00;2.80;;;20.80;59.60;;;;;;20655;6813;118244;-75
2023/07/02 05:52:30;;;;;;;2.93;2.73;;;20.70;59.90;;;;;;20652;6797;127434;-75
2023/07/02 05:55:10;;;;;;;3.00;2.80;;;20.50;60.40;;;;;;20460;6797;282794;-75
2023/07/02 05:57:44;;;;;;;3.10;2.90;;;20.70;59.90;;;;;;20493;6796;338116;-75
2023/07/02 06:00:20;;;;;;;3.10;2.97;;;21.00;58.60;;;;;;20421;6797;281333;-76
2023/07/02 06:02:55;;;;;;;3.03;2.83;;;21.40;57.80;;;;;;20477;6797;280925;-76
2023/07/02 06:05:31;;;;;;;3.00;2.80;;;21.60;57.00;;;;;;20604;6812;117341;-76
2023/07/02 06:08:08;;;;;;;3.00;2.85;;;21.70;56.90;;;;;;20429;6812;304472;-77
2023/07/02 06:10:43;;;;;;;2.60;2.50;;;21.70;56.90;;;;;;20575;6812;119517;-76
2023/07/02 06:13:19;;;;;;;2.60;2.40;;;21.70;57.70;;;;;;20702;6793;120626;-76
2023/07/02 06:15:58;;;;;;;2.73;2.63;;;22.00;57.80;;;;;;20482;6793;308672;-76
2023/07/02 06:18:31;;;;;;;3.00;2.70;;;22.00;57.80;;;;;;20683;6793;118373;-75
2023/07/02 06:21:06;;;;;;;2.73;2.47;;;22.30;58.30;;;;;;20605;6793;119430;-75
2023/07/02 06:23:45;;;;;;;2.93;2.80;;;22.40;59.00;;;;;;20485;6797;278296;-76
2023/07/02 06:26:20;;;;;;;3.63;2.87;;;22.80;54.80;;;;;;20674;6797;146630;-76
2023/07/02 06:28:58;;;;;;;3.00;2.80;;;23.70;52.80;;;;;;20472;6797;313215;-76
2023/07/02 06:31:35;;;;;;;2.50;2.40;;;23.70;52.80;;;;;;20541;6797;119886;-75
2023/07/02 06:34:08;;;;;;;2.90;2.70;;;24.10;54.30;;;;;;20684;6797;117748;-75
2023/07/02 06:36:43;;;;;;;3.30;3.10;;;24.30;55.40;;;;;;20461;6797;307751;-76
2023/07/02 06:39:19;;;;;;;3.13;2.83;;;24.90;51.50;;;;;;20682;6797;117281;-76
2023/07/02 06:42:04;;;;;;;3.33;3.03;;;25.80;48.90;;;;;;20300;6797;283245;-75
2023/07/02 06:44:31;;;;;;;3.80;3.20;;;25.80;48.80;;;;;;20467;6797;278376;-77
2023/07/02 06:47:06;;;;;;;3.00;2.70;;;26.40;47.40;;;;;;20689;6797;117368;-76
2023/07/02 06:49:45;;;;;;;3.40;3.10;;;26.60;49.30;;;;;;20476;6797;312914;-78
2023/07/02 06:52:18;;;;;;;3.97;3.50;;;27.40;46.00;;;;;;20260;6868;310729;-77
2023/07/02 06:54:54;;;;;;;3.10;2.90;;;27.40;46.00;;;;;;20699;6797;118749;-73
2023/07/02 06:57:29;;;;;;;3.63;3.33;;;27.60;48.10;;;;;;20691;6797;118307;-73
2023/07/02 07:00:06;;;;;;;4.57;4.23;;;27.40;48.30;;;;;;20668;6797;117872;-73
2023/07/02 07:02:41;;;;;;;4.75;4.00;;;26.90;48.30;;;;;;20460;6797;282692;-74
2023/07/02 07:05:17;;;;;;;4.30;3.90;;;26.80;45.20;;;;;;20700;6797;117554;-73
2023/07/02 07:07:52;;;;;;;6.22;5.72;;;26.60;47.00;;;;;;20472;6797;337217;-75
2023/07/02 07:10:33;;;;;;;6.57;6.07;;;26.50;45.10;;;;;;20613;6797;120803;-73
2023/07/02 07:13:04;;;;;;;6.40;5.87;;;26.20;46.30;;;;;;20487;6797;281329;-72
2023/07/02 07:15:39;;;;;;;5.73;5.23;;;26.10;45.30;;;;;;20680;6797;117255;-73
2023/07/02 07:18:15;;;;;;;6.17;5.57;;;25.80;46.90;;;;;;20694;6797;120562;-74
2023/07/02 07:20:52;;;;;;;9.67;5.80;;;25.50;47.70;;;;;;20578;6797;118878;-74
2023/07/02 07:23:26;;;;;;;6.70;5.80;;;25.20;48.40;;;;;;20481;6797;282297;-75
2023/07/02 07:26:01;;;;;;;6.43;5.80;;;25.20;47.10;;;;;;20687;6797;118484;-74
2023/07/02 07:28:37;;;;;;;7.40;6.60;;;24.90;48.00;;;;;;20457;6797;308490;-75
2023/07/02 07:31:12;;;;;;;7.27;6.23;;;24.90;46.80;;;;;;20566;6797;120287;-74
2023/07/02 07:33:48;;;;;;;7.50;6.47;;;24.70;47.80;;;;;;20692;6797;117289;-72
2023/07/02 07:36:24;;;;;;;8.80;6.33;;;24.30;48.60;;;;;;20672;6797;121059;-72
2023/07/02 07:38:59;;;;;;;12.63;6.73;;;24.00;49.50;;;;;;20684;6797;118702;-73
2023/07/02 07:41:35;;;;;;;8.50;7.73;;;23.70;50.20;;;;;;20316;6797;281521;-74
2023/07/02 07:44:10;;;;;;;8.30;7.50;;;23.90;48.30;;;;;;20681;6797;120535;-71
2023/07/02 07:46:47;;;;;;;9.83;8.40;;;24.00;48.30;;;;;;20464;6797;292625;-73
2023/07/02 07:49:22;;;;;;;8.93;8.07;;;24.00;48.30;;;;;;20692;6797;119549;-73
2023/07/02 07:51:58;;;;;;;11.83;7.20;;;24.10;49.60;;;;;;20498;6797;118808;-73
2023/07/02 07:54:35;;;;;;;8.73;7.43;;;24.00;50.30;;;;;;20683;6797;122228;-74
2023/07/02 07:57:13;;;;;;;10.63;9.03;;;24.60;49.10;;;;;;20473;6797;309671;-76
2023/07/02 07:59:45;;;;;;;11.40;9.60;;;24.50;48.50;;;;;;20470;6797;307881;-74
2023/07/02 08:02:22;;;;;;;9.57;7.90;;;25.20;48.00;;;;;;20441;6873;119557;-75
2023/07/02 08:04:56;;;;;;;9.90;9.00;;;25.50;48.90;;;;;;20677;6799;117625;-74
2023/07/02 08:07:33;;;;;;;13.23;10.33;;;25.80;45.80;;;;;;20404;6819;278732;-73
2023/07/02 08:10:08;;;;;;;11.90;10.70;;;25.80;45.80;;;;;;20354;6831;314521;-74
2023/07/02 08:12:45;;;;;;;12.98;10.95;;;26.20;43.40;;;;;;20353;6831;339665;-74
2023/07/02 08:15:20;;;;;;;14.90;9.50;;;26.50;43.00;;;;;;20632;6816;124152;-74
2023/07/02 08:17:58;;;;;;;10.53;9.63;;;26.50;44.30;;;;;;20614;6816;117666;-73
2023/07/02 08:20:31;;;;;;;13.00;9.47;;;26.30;44.90;;;;;;20572;6839;118000;-73
2023/07/02 08:23:07;;;;;;;12.03;10.90;;;26.20;45.70;;;;;;20466;6799;312126;-73
2023/07/02 08:25:42;;;;;;;13.23;11.43;;;26.50;43.50;;;;;;20390;6826;310979;-73
2023/07/02 08:28:17;;;;;;;11.03;9.90;;;26.90;41.80;;;;;;20596;6824;117845;-72
2023/07/02 08:30:56;;;;;;;13.47;11.70;;;26.70;42.60;;;;;;20403;6797;310177;-73
2023/07/02 08:33:29;;;;;;;11.77;10.53;;;26.60;40.90;;;;;;20721;6789;118241;-73
2023/07/02 08:36:05;;;;;;;12.70;11.33;;;26.30;42.40;;;;;;20495;6789;308329;-72
2023/07/02 08:38:42;;;;;;;13.32;11.32;;;26.10;41.60;;;;;;20481;6789;339183;-72
2023/07/02 08:41:16;;;;;;;12.83;11.50;;;26.20;41.60;;;;;;20346;6812;314646;-72
2023/07/02 08:43:52;;;;;;;11.50;10.40;;;26.30;42.00;;;;;;20707;6789;118084;-73
2023/07/02 08:46:27;;;;;;;12.70;11.50;;;26.30;43.30;;;;;;19989;6847;308628;-73
2023/07/02 08:49:02;;;;;;;12.80;10.57;;;26.50;42.10;;;;;;20700;6790;117937;-73
2023/07/02 08:51:38;;;;;;;12.83;9.60;;;26.70;43.00;;;;;;20551;6790;122108;-73
2023/07/02 08:54:14;;;;;;;12.53;11.23;;;26.90;40.40;;;;;;20491;6790;308763;-73
2023/07/02 08:56:50;;;;;;;12.70;11.40;;;26.90;40.40;;;;;;20481;6790;308245;-73
2023/07/02 08:59:25;;;;;;;12.07;10.93;;;27.10;39.40;;;;;;20500;6790;312695;-73
2023/07/02 09:02:01;;;;;;;15.03;10.67;;;27.10;38.80;;;;;;20561;6786;117987;-73
2023/07/02 09:04:37;;;;;;;12.03;10.83;;;26.80;40.20;;;;;;20494;6786;289696;-72
2023/07/02 09:07:13;;;;;;;11.00;9.77;;;26.70;38.60;;;;;;20721;6786;120218;-74
2023/07/02 09:09:49;;;;;;;11.07;10.00;;;26.30;40.40;;;;;;20737;6786;117554;-73
2023/07/02 09:12:28;;;;;;;12.03;10.27;;;25.90;43.30;;;;;;20706;6786;122460;-73
2023/07/02 09:15:06;;;;;;;13.80;9.63;;;25.90;42.80;;;;;;20737;6786;120761;-73
2023/07/02 09:17:40;;;;;;;12.00;10.63;;;25.80;43.40;;;;;;20523;6786;278359;-73
2023/07/02 09:20:19;;;;;;;15.77;11.40;;;26.50;41.20;;;;;;20422;6810;320849;-72
2023/07/02 09:22:55;;;;;;;12.68;10.55;;;26.40;41.10;;;;;;20469;6795;311659;-73
2023/07/02 09:25:34;;;;;;;10.57;9.47;;;26.90;40.30;;;;;;20708;6795;118622;-72
2023/07/02 09:28:19;;;;;;;11.53;10.30;;;27.20;41.00;;;;;;20695;6795;117937;-73
2023/07/02 09:30:54;;;;;;;10.90;8.83;;;27.10;41.10;;;;;;20600;6795;118157;-73
2023/07/02 09:33:30;;;;;;;10.30;9.30;;;27.00;41.30;;;;;;20702;6795;117431;-73
2023/07/02 09:36:06;;;;;;;12.97;10.37;;;26.90;38.30;;;;;;20486;6795;278803;-73
2023/07/02 09:38:42;;;;;;;11.57;10.57;;;26.90;38.20;;;;;;20381;6825;279270;-73
2023/07/02 09:41:17;;;;;;;11.70;10.43;;;27.30;38.50;;;;;;20327;6821;293919;-73
2023/07/02 09:43:53;;;;;;;12.23;10.80;;;28.10;37.10;;;;;;20483;6797;310800;-73
2023/07/02 09:46:29;;;;;;;11.68;10.57;;;28.00;37.00;;;;;;20449;6801;337464;-74
2023/07/02 09:49:06;;;;;;;12.50;11.30;;;28.40;37.40;;;;;;20482;6797;290008;-73
2023/07/02 09:51:42;;;;;;;13.90;10.80;;;28.90;36.70;;;;;;20358;6794;280993;-73
2023/07/02 09:54:20;;;;;;;12.13;9.93;;;28.80;36.00;;;;;;20665;6807;117781;-73
2023/07/02 09:56:54;;;;;;;12.97;10.67;;;28.80;37.30;;;;;;20750;6777;117664;-73
2023/07/02 09:59:30;;;;;;;13.33;11.93;;;28.40;37.70;;;;;;20467;6791;308850;-72
2023/07/02 10:02:06;;;;;;;13.80;12.25;;;28.30;35.20;;;;;;20362;6791;280980;-73
2023/07/02 10:04:45;;;;;;;13.40;12.00;;;28.30;36.30;;;;;;20600;6821;122154;-72
2023/07/02 10:07:27;;;;;;;15.20;13.60;;;28.10;37.30;;;;;;20617;6824;117976;-70
2023/07/02 10:10:04;;;;;;;15.30;12.67;;;27.30;38.40;;;;;;20601;6824;117938;-73
2023/07/02 10:12:40;;;;;;;15.80;14.20;;;27.10;39.10;;;;;;20642;6809;119813;-72
2023/07/02 10:15:15;;;;;;;15.17;13.67;;;27.10;39.00;;;;;;20616;6821;118373;-73
2023/07/02 10:17:54;;;;;;;16.37;14.60;;;27.00;39.00;;;;;;20639;6815;117785;-72
2023/07/02 10:20:36;;;;;;;15.57;14.03;;;26.80;37.90;;;;;;21096;6474;67185;-71
2023/07/02 10:23:02;;;;;;;15.70;14.07;;;26.60;38.20;;;;;;20749;6825;117543;-71
2023/07/02 10:25:27;;;;;;;16.20;14.50;;;26.40;38.80;;;;;;20712;6844;119719;-71
2023/07/02 10:27:53;;;;;;;17.23;15.47;;;26.20;39.20;;;;;;20532;6826;277706;-71
2023/07/02 10:30:18;;;;;;;14.17;12.80;;;26.30;36.80;;;;;;20752;6826;117285;-70
2023/07/02 10:32:44;;;;;;;15.73;14.23;;;26.40;38.20;;;;;;20373;6823;279007;-71
2023/07/02 10:35:13;;;;;;;16.23;14.67;;;26.70;36.90;;;;;;20555;6823;311416;-70
2023/07/02 10:37:39;;;;;;;15.03;13.40;;;27.00;35.00;;;;;;20751;6826;117590;-71
2023/07/02 10:40:07;;;;;;;15.23;13.40;;;27.00;36.40;;;;;;20702;6846;119946;-73
2023/07/02 10:42:34;;;;;;;15.93;14.37;;;26.90;37.60;;;;;;20478;6845;287459;-69
2023/07/02 10:44:58;;;;;;;17.40;15.60;;;27.10;36.50;;;;;;20473;6845;324512;-70
2023/07/02 10:47:24;;;;;;;17.23;14.20;;;27.50;35.70;;;;;;20702;6845;120061;-69
2023/07/02 10:49:49;;;;;;;16.77;15.18;;;27.70;37.40;;;;;;20490;6838;281617;-72
2023/07/02 10:52:15;;;;;;;16.83;15.10;;;28.00;33.60;;;;;;20520;6838;278056;-75
2023/07/02 10:54:44;;;;;;;17.37;15.65;;;28.20;34.00;;;;;;20451;6838;335212;-72
2023/07/02 10:57:09;;;;;;;17.50;14.67;;;28.30;33.60;;;;;;20692;6845;125121;-71
2023/07/02 10:59:35;;;;;;;15.35;13.73;;;28.20;35.30;;;;;;20740;6826;117808;-71
2023/07/02 11:02:03;;;;;;;16.00;14.30;;;28.10;36.10;;;;;;20756;6826;117583;-72
2023/07/02 11:04:26;;;;;;;18.87;16.83;;;27.80;36.40;;;;;;20545;6826;280235;-73
2023/07/02 11:06:52;;;;;;;17.33;15.53;;;27.90;33.80;;;;;;20760;6826;118159;-75
2023/07/02 11:09:17;;;;;;;20.03;15.23;;;27.90;34.90;;;;;;20750;6826;117585;-71
2023/07/02 11:11:52;;;;;;;20.63;15.87;;;27.70;35.70;;;;;;20751;6826;117543;-71
2023/07/02 11:14:35;;;;;;;19.20;17.33;;;27.60;36.20;;;;;;20547;6826;278036;-73
2023/07/02 11:17:05;;;;;;;19.73;17.63;;;27.80;34.30;;;;;;20555;6826;308080;-75
2023/07/02 11:19:29;;;;;;;19.53;17.57;;;28.10;33.40;;;;;;20548;6826;278021;-70
2023/07/02 11:21:58;;;;;;;19.98;17.98;;;28.60;33.30;;;;;;20573;6826;329739;-71
2023/07/02 11:24:31;;;;;;;20.47;18.47;;;28.60;32.60;;;;;;20493;6845;283116;-71
2023/07/02 11:26:56;;;;;;;19.20;17.37;;;28.90;33.10;;;;;;20567;6826;278411;-70
2023/07/02 11:29:22;;;;;;;19.37;17.47;;;29.10;33.10;;;;;;20569;6826;277717;-70
2023/07/02 11:31:48;;;;;;;19.80;17.80;;;29.40;30.80;;;;;;20556;6824;278224;-70
2023/07/02 11:34:21;;;;;;;19.37;17.50;;;29.30;31.10;;;;;;20559;6826;324573;-71
2023/07/02 11:36:46;;;;;;;19.27;17.27;;;29.40;31.20;;;;;;20554;6826;311688;-69
2023/07/02 11:39:12;;;;;;;19.00;17.10;;;29.50;31.20;;;;;;20562;6826;312751;-71
2023/07/02 11:41:40;;;;;;;18.80;15.80;;;29.60;31.80;;;;;;20754;6828;120535;-72
2023/07/02 11:44:06;;;;;;;18.90;17.02;;;29.50;32.50;;;;;;20548;6828;308809;-73
2023/07/02 11:46:31;;;;;;;17.33;15.60;;;29.50;30.00;;;;;;20749;6828;119489;-71
2023/07/02 11:48:57;;;;;;;19.15;17.35;;;29.30;31.90;;;;;;20554;6828;313694;-70
2023/07/02 11:51:23;;;;;;;18.27;16.37;;;29.20;31.40;;;;;;20771;6828;117664;-70
2023/07/02 11:53:49;;;;;;;20.10;18.10;;;29.00;32.00;;;;;;20487;6848;309014;-70
2023/07/02 11:56:14;;;;;;;17.90;16.17;;;28.90;31.90;;;;;;20708;6845;118013;-70
2023/07/02 11:58:40;;;;;;;17.58;15.77;;;28.80;33.10;;;;;;20542;6826;336055;-71
2023/07/02 12:01:06;;;;;;;19.30;15.67;;;28.90;31.60;;;;;;20765;6826;117849;-71
2023/07/02 12:03:32;;;;;;;16.87;15.03;;;28.90;32.80;;;;;;20718;6826;117568;-70
2023/07/02 12:05:58;;;;;;;18.13;16.30;;;28.80;33.50;;;;;;20505;6826;280661;-69
2023/07/02 12:08:26;;;;;;;17.77;16.17;;;28.90;32.40;;;;;;20503;6826;277567;-70
2023/07/02 12:10:51;;;;;;;17.03;15.33;;;29.20;32.70;;;;;;20700;6826;119810;-68
2023/07/02 12:13:23;;;;;;;15.77;14.10;;;29.30;33.10;;;;;;20762;6826;66704;-69
2023/07/02 12:15:47;;;;;;;14.83;13.50;;;29.10;33.00;;;;;;20711;6829;117832;-70
2023/07/02 12:18:12;;;;;;;17.47;14.63;;;28.90;33.30;;;;;;20750;6829;117635;-69
2023/07/02 12:20:43;;;;;;;15.17;13.67;;;28.80;33.30;;;;;;20729;6829;117501;-69
2023/07/02 12:23:11;;;;;;;15.03;13.63;;;28.70;33.60;;;;;;20737;6829;121691;-69
2023/07/02 12:25:38;;;;;;;17.63;13.93;;;28.50;33.40;;;;;;20732;6829;117532;-69
2023/07/02 12:28:05;;;;;;;17.60;15.80;;;28.40;33.60;;;;;;20548;6829;277806;-70
2023/07/02 12:30:35;;;;;;;14.27;12.93;;;28.50;32.30;;;;;;20732;6829;118772;-69
2023/07/02 12:33:01;;;;;;;14.37;12.97;;;28.60;32.50;;;;;;20744;6829;118393;-69
2023/07/02 12:35:27;;;;;;;14.97;12.70;;;28.50;32.60;;;;;;20737;6829;117983;-69
2023/07/02 12:37:54;;;;;;;13.80;12.40;;;28.50;32.60;;;;;;20698;6848;123413;-69
2023/07/02 12:40:19;;;;;;;14.10;12.77;;;28.40;32.20;;;;;;20736;6829;118102;-69
2023/07/02 12:42:45;;;;;;;14.75;13.35;;;28.20;31.70;;;;;;20489;6844;285094;-69
2023/07/02 12:45:11;;;;;;;15.20;13.85;;;28.70;30.30;;;;;;20562;6825;336175;-69
2023/07/02 12:47:37;;;;;;;14.43;13.00;;;28.70;30.30;;;;;;20759;6826;120208;-69
2023/07/02 12:50:03;;;;;;;15.50;14.00;;;28.80;31.00;;;;;;20554;6826;282031;-69
2023/07/02 12:52:29;;;;;;;15.90;14.20;;;29.10;29.30;;;;;;20527;6826;336936;-68
2023/07/02 13:19:15;;;;;;;16.60;14.87;;;30.00;27.30;;;;;;21343;6501;66690;-78
2023/07/02 13:21:41;;;;;;;14.60;13.10;;;29.20;29.10;;;;;;20857;6793;116831;-77
2023/07/02 13:24:07;;;;;;;15.43;13.90;;;29.20;29.10;;;;;;20637;6787;306879;-80
2023/07/02 13:26:32;;;;;;;15.37;13.80;;;29.00;28.50;;;;;;20777;6804;117831;-76
2023/07/02 13:29:00;;;;;;;16.67;14.93;;;29.00;30.00;;;;;;20506;6832;278946;-75